createdAt,value
2018-12-12T00:02:18.358Z,101585.23
2018-12-12T00:07:23.540Z,101586.89
2018-12-12T00:12:26.473Z,101580.92
2018-12-12T00:17:29.415Z,101582.57
2018-12-12T00:22:34.176Z,101581.20
2018-12-12T00:27:36.932Z,101585.48
2018-12-12T00:32:39.823Z,101585.91
2018-12-12T00:37:42.561Z,101585.48
2018-12-12T00:42:45.297Z,101593.18
2018-12-12T00:47:48.064Z,101600.47
2018-12-12T00:52:50.990Z,101606.47
2018-12-12T00:57:53.935Z,101604.66
2018-12-12T01:02:56.841Z,101606.82
2018-12-12T01:07:59.730Z,101608.46
2018-12-12T01:13:02.404Z,101608.00
2018-12-12T01:18:05.423Z,101619.51
2018-12-12T01:23:08.276Z,101621.21
2018-12-12T01:28:10.917Z,101628.94
2018-12-12T01:33:13.739Z,101637.87
2018-12-12T01:38:16.383Z,101635.19
2018-12-12T01:43:19.163Z,101644.16
2018-12-12T01:48:22.159Z,101642.38
2018-12-12T01:53:25.048Z,101636.31
2018-12-12T01:58:27.579Z,101658.57
2018-12-12T02:03:30.436Z,101653.80
2018-12-12T02:08:33.305Z,101659.77
2018-12-12T02:13:36.734Z,101669.59
2018-12-12T02:18:42.328Z,101669.09
2018-12-12T02:23:45.101Z,101664.77
2018-12-12T02:28:47.988Z,101678.01
2018-12-12T02:33:51.090Z,101680.56
2018-12-12T02:38:53.944Z,101675.84
2018-12-12T02:43:56.973Z,101685.72
2018-12-12T02:49:00.003Z,101698.10
2018-12-12T02:54:02.870Z,101697.66
2018-12-12T02:59:05.772Z,101702.38
2018-12-12T03:04:08.604Z,101707.97
2018-12-12T03:09:11.578Z,101708.80
2018-12-12T03:14:14.457Z,101715.23
2018-12-12T03:19:18.306Z,101710.50
2018-12-12T03:24:20.977Z,101716.11
2018-12-12T03:29:23.737Z,101725.97
2018-12-12T03:34:26.813Z,101731.58
2018-12-12T03:39:30.030Z,101744.00
2018-12-12T03:44:32.801Z,101748.72
2018-12-12T03:49:35.542Z,101752.58
2018-12-12T03:54:38.264Z,101752.58
2018-12-12T03:59:40.995Z,101762.42
2018-12-12T04:04:43.867Z,101772.37
2018-12-12T04:09:46.597Z,101783.12
2018-12-12T04:14:49.188Z,101776.66
2018-12-12T04:19:51.883Z,101786.03
2018-12-12T04:24:55.117Z,101789.48
2018-12-12T04:29:57.732Z,101793.81
2018-12-12T04:35:00.892Z,101790.83
2018-12-12T04:40:05.395Z,101796.08
2018-12-12T04:45:08.392Z,101804.27
2018-12-12T04:50:11.256Z,101801.75
2018-12-12T04:55:14.106Z,101810.35
2018-12-12T05:00:16.943Z,101808.98
2018-12-12T05:05:19.814Z,101810.77
2018-12-12T05:10:22.786Z,101814.24
2018-12-12T05:15:25.710Z,101821.17
2018-12-12T05:20:28.495Z,101822.50
2018-12-12T05:25:31.408Z,101831.17
2018-12-12T05:30:34.783Z,101835.97
2018-12-12T05:35:37.904Z,101844.68
2018-12-12T05:40:41.140Z,101839.78
2018-12-12T05:45:44.083Z,101848.86
2018-12-12T05:50:46.865Z,101849.72
2018-12-12T05:55:49.536Z,101856.98
2018-12-12T06:00:52.301Z,101858.27
2018-12-12T06:05:55.040Z,101873.68
2018-12-12T06:10:57.728Z,101875.82
2018-12-12T06:16:00.353Z,101875.77
2018-12-12T06:21:03.183Z,101874.11
2018-12-12T06:26:06.159Z,101885.35
2018-12-12T06:31:09.271Z,101889.23
2018-12-12T06:36:12.133Z,101890.07
2018-12-12T06:41:15.193Z,101894.87
2018-12-12T06:46:19.287Z,101901.39
2018-12-12T06:51:22.204Z,101912.99
2018-12-12T06:56:25.175Z,101920.70
2018-12-12T07:01:28.203Z,101923.31
2018-12-12T07:06:31.054Z,101921.22
2018-12-12T07:11:33.916Z,101937.12
2018-12-12T07:16:36.804Z,101938.47
2018-12-12T07:21:39.888Z,101941.89
2018-12-12T07:26:43.536Z,101946.56
2018-12-12T07:31:46.528Z,101949.55
2018-12-12T07:36:49.463Z,101946.11
2018-12-12T07:41:52.285Z,101957.65
2018-12-12T07:46:57.616Z,101964.49
2018-12-12T07:52:02.460Z,101968.38
2018-12-12T07:57:05.441Z,101969.64
2018-12-12T08:02:08.497Z,101974.31
2018-12-12T08:07:11.506Z,101976.88
2018-12-12T08:12:14.421Z,101977.30
2018-12-12T08:17:17.240Z,101981.14
2018-12-12T08:22:20.185Z,101984.92
2018-12-12T08:27:23.325Z,101980.58
2018-12-12T08:32:26.279Z,101980.93
2018-12-12T08:37:29.254Z,101980.08
2018-12-12T08:42:32.061Z,101988.58
2018-12-12T08:47:34.749Z,101991.14
2018-12-12T08:52:38.753Z,101994.52
2018-12-12T08:57:41.524Z,102013.75
2018-12-12T09:02:44.504Z,102013.66
2018-12-12T09:07:47.456Z,102017.87
2018-12-12T09:12:50.209Z,102023.36
2018-12-12T09:17:52.924Z,102024.56
2018-12-12T09:22:55.660Z,102027.06
2018-12-12T09:27:58.564Z,102028.65
2018-12-12T09:33:03.504Z,102036.38
2018-12-12T09:38:12.346Z,102027.26
2018-12-12T09:43:15.097Z,102029.68
2018-12-12T09:48:19.714Z,102030.37
2018-12-12T09:53:22.992Z,102036.73
2018-12-12T09:58:25.842Z,102036.19
2018-12-12T10:03:31.270Z,102033.55
2018-12-12T10:08:33.666Z,102041.67
2018-12-12T10:13:36.545Z,102048.16
2018-12-12T10:18:39.748Z,102034.91
2018-12-12T10:23:42.608Z,102039.12
2018-12-12T10:28:45.374Z,102030.83
2018-12-12T10:33:48.525Z,102028.94
2018-12-12T10:38:51.393Z,102029.70
2018-12-12T10:43:54.312Z,102040.87
2018-12-12T10:48:57.964Z,102039.58
2018-12-12T10:54:00.949Z,102045.50
2018-12-12T10:59:03.763Z,102040.58
2018-12-12T11:04:08.019Z,102044.38
2018-12-12T11:09:11.100Z,102046.01
2018-12-12T11:14:13.827Z,102045.08
2018-12-12T11:19:16.412Z,102044.16
2018-12-12T11:24:19.061Z,102043.25
2018-12-12T11:29:21.928Z,102040.57
2018-12-12T11:34:24.696Z,102043.16
2018-12-12T11:39:27.507Z,102036.78
2018-12-12T11:44:30.352Z,102038.69
2018-12-12T11:49:32.977Z,102042.98
2018-12-12T11:54:35.966Z,102039.56
2018-12-12T11:59:38.609Z,102040.41
2018-12-12T12:04:41.512Z,102044.30
2018-12-12T12:09:44.297Z,102052.39
2018-12-12T12:14:47.253Z,102053.67
2018-12-12T12:19:50.229Z,102049.69
2018-12-12T12:24:53.107Z,102051.61
2018-12-12T12:29:56.042Z,102051.86
2018-12-12T12:35:00.143Z,102048.55
2018-12-12T12:40:05.810Z,102052.62
2018-12-12T12:45:08.792Z,102051.84
2018-12-12T12:50:11.656Z,102050.05
2018-12-12T12:55:15.611Z,102054.55
2018-12-12T13:00:18.300Z,102049.20
2018-12-12T13:05:21.253Z,102059.86
2018-12-12T13:10:24.241Z,102055.71
2018-12-12T13:15:27.350Z,102052.81
2018-12-12T13:20:30.214Z,102061.11
2018-12-12T13:25:33.238Z,102056.79
2018-12-12T13:30:36.263Z,102063.84
2018-12-12T13:35:39.043Z,102067.95
2018-12-12T13:40:41.864Z,102071.48
2018-12-12T13:45:44.950Z,102068.11
2018-12-12T13:50:47.857Z,102076.29
2018-12-12T13:55:50.794Z,102078.33
2018-12-12T14:00:55.478Z,102077.40
2018-12-12T14:05:58.472Z,102085.02
2018-12-12T14:11:01.697Z,102085.10
2018-12-12T14:16:05.006Z,102087.91
2018-12-12T14:21:07.957Z,102090.25
2018-12-12T14:26:10.987Z,102087.47
2018-12-12T14:31:13.943Z,102092.88
2018-12-12T14:36:16.780Z,102090.00
2018-12-12T14:41:19.547Z,102084.93
2018-12-12T14:46:22.381Z,102086.73
2018-12-12T14:51:25.141Z,102090.74
2018-12-12T14:56:28.225Z,102095.17
2018-12-12T15:01:32.095Z,102108.59
2018-12-12T15:06:35.011Z,102108.66
2018-12-12T15:11:37.972Z,102108.32
2018-12-12T15:16:40.861Z,102113.98
2018-12-12T15:21:43.728Z,102124.38
2018-12-12T15:26:46.516Z,102125.31
2018-12-12T15:31:49.427Z,102133.13
2018-12-12T15:36:52.317Z,102129.30
2018-12-12T15:41:55.762Z,102139.25
2018-12-12T15:46:58.597Z,102139.73
2018-12-12T15:52:01.405Z,102138.95
2018-12-12T15:57:04.299Z,102145.90
2018-12-12T16:02:07.266Z,102151.09
2018-12-12T16:07:10.363Z,102142.97
2018-12-12T16:12:13.525Z,102150.30
2018-12-12T16:17:16.558Z,102153.38
2018-12-12T16:22:19.373Z,102159.40
2018-12-12T16:27:22.376Z,102146.13
2018-12-12T16:32:25.328Z,102149.55
2018-12-12T16:37:28.148Z,102152.15
2018-12-12T16:42:31.104Z,102155.66
2018-12-12T16:47:35.921Z,102160.39
2018-12-12T16:52:38.698Z,102158.67
2018-12-12T16:57:41.381Z,102168.63
2018-12-12T17:02:44.289Z,102175.13
2018-12-12T17:07:47.231Z,102177.33
2018-12-12T17:12:50.257Z,102176.48
2018-12-12T17:17:53.288Z,102175.67
2018-12-12T17:22:56.040Z,102179.19
2018-12-12T17:27:58.762Z,102176.24
2018-12-12T17:33:01.751Z,102179.75
2018-12-12T17:38:04.894Z,102181.05
2018-12-12T17:43:07.823Z,102182.39
2018-12-12T17:48:10.706Z,102185.82
2018-12-12T17:53:14.021Z,102184.58
2018-12-12T17:58:16.916Z,102191.91
2018-12-12T18:03:21.258Z,102188.96
2018-12-12T18:08:43.850Z,102198.45
2018-12-12T18:13:46.912Z,102195.83
2018-12-12T18:18:51.875Z,102198.02
2018-12-12T18:23:54.847Z,102191.53
2018-12-12T18:28:57.651Z,102198.45
2018-12-12T18:34:00.620Z,102201.45
2018-12-12T18:39:07.059Z,102197.23
2018-12-12T18:44:11.754Z,102208.81
2018-12-12T18:49:14.597Z,102211.38
2018-12-12T18:54:19.587Z,102207.95
2018-12-12T18:59:24.486Z,102211.33
2018-12-12T19:04:27.449Z,102213.91
2018-12-12T19:14:48.526Z,102217.40
2018-12-12T19:19:52.303Z,102230.27
2018-12-12T19:24:55.203Z,102222.16
2018-12-12T19:29:58.044Z,102231.17
2018-12-12T19:35:00.961Z,102226.03
2018-12-12T19:40:04.910Z,102229.89
2018-12-12T19:45:08.225Z,102227.75
2018-12-12T19:50:11.308Z,102226.03
2018-12-12T19:55:14.341Z,102222.60
2018-12-12T20:00:17.121Z,102223.51
2018-12-12T20:05:19.929Z,102220.08
2018-12-12T20:10:22.882Z,102217.50
2018-12-12T20:15:31.902Z,102219.27
2018-12-12T20:20:34.683Z,102220.08
2018-12-12T20:25:37.447Z,102221.37
2018-12-12T20:30:40.743Z,102229.95
2018-12-12T20:35:47.926Z,102225.70
2018-12-12T20:40:48.516Z,102220.98
2018-12-12T20:45:51.562Z,102230.43
2018-12-12T20:50:54.444Z,102236.01
2018-12-12T20:55:57.384Z,102235.14
2018-12-12T21:01:01.475Z,102235.95
2018-12-12T21:06:05.854Z,102238.53
2018-12-12T21:11:09.048Z,102238.52
2018-12-12T21:16:12.823Z,102232.91
2018-12-12T21:21:15.810Z,102232.09
2018-12-12T21:26:19.499Z,102226.94
2018-12-12T21:31:22.346Z,102226.47
2018-12-12T21:41:38.291Z,102215.78
2018-12-12T21:46:42.721Z,102216.23
2018-12-12T21:51:45.873Z,102216.64
2018-12-12T21:56:48.493Z,102217.13
2018-12-12T22:07:04.291Z,102204.70
2018-12-12T22:12:07.212Z,102213.27
2018-12-12T22:17:10.405Z,102208.12
2018-12-12T22:22:14.251Z,102206.41
2018-12-12T22:27:17.043Z,102199.96
2018-12-12T22:32:19.852Z,102202.55
2018-12-12T22:37:22.766Z,102197.02
2018-12-12T22:42:25.516Z,102207.31
2018-12-12T22:47:28.255Z,102217.63
2018-12-12T22:52:31.047Z,102212.89
2018-12-12T22:57:33.998Z,102209.84
2018-12-12T23:02:36.948Z,102205.16
2018-12-12T23:07:39.869Z,102206.02
2018-12-12T23:12:42.889Z,102196.16
2018-12-12T23:17:45.666Z,102195.25
2018-12-12T23:22:49.609Z,102196.05
2018-12-12T23:27:53.309Z,102195.19
2018-12-12T23:32:56.236Z,102195.19
2018-12-12T23:37:58.888Z,102187.95
2018-12-12T23:43:01.706Z,102191.44
2018-12-12T23:48:04.885Z,102190.11
2018-12-12T23:53:07.681Z,102180.24
2018-12-12T23:58:10.283Z,102184.58
